Time;durP1;ratioP1;P1;durP2;ratioP2;P2;SDS_P1;SDS_P2;PMS_P1;PMS_P2;Temp;Humidity;BMP_temperature;BMP_pressure;BME280_temperature;BME280_humidity;BME280_pressure;Samples;Min_cycle;Max_cycle;Signal;HPM_P1;HPM_P2
2022/04/09 00:02:02;;;;;;;7.22;3.15;;;;;;;;;;4971962;28;20046;-84
2022/04/09 00:04:27;;;;;;;6.57;2.97;;;;;;;;;;4974697;28;20438;-85
2022/04/09 00:06:52;;;;;;;5.97;2.80;;;;;;;;;;4974379;28;20453;-85
2022/04/09 00:09:18;;;;;;;6.18;2.95;;;;;;;;;;4974841;28;20463;-85
2022/04/09 00:11:44;;;;;;;6.20;3.10;;;;;;;;;;4973924;28;20061;-85
2022/04/09 00:14:09;;;;;;;5.82;2.80;;;;;;;;;;4973818;28;20042;-85
2022/04/09 00:16:34;;;;;;;5.20;2.75;;;;;;;;;;4972260;28;20375;-85
2022/04/09 00:19:00;;;;;;;6.22;3.13;;;;;;;;;;4966070;28;20073;-84
2022/04/09 00:21:28;;;;;;;5.53;2.70;;;;;;;;;;4962314;28;20085;-84
2022/04/09 00:23:53;;;;;;;;;;;;;;;;;;4975293;28;20478;-85
2022/04/09 00:26:18;;;;;;;6.20;2.57;;;;;;;;;;4965377;28;19914;-84
2022/04/09 00:28:43;;;;;;;6.57;2.67;;;;;;;;;;4966218;28;20298;-85
2022/04/09 00:31:09;;;;;;;7.45;2.88;;;;;;;;;;4983773;28;20506;-85
2022/04/09 00:33:34;;;;;;;5.38;2.63;;;;;;;;;;4978149;28;20161;-85
2022/04/09 00:36:00;;;;;;;6.50;3.00;;;;;;;;;;4976221;28;20030;-85
2022/04/09 00:38:26;;;;;;;6.22;2.60;;;;;;;;;;4964381;28;20045;-84
2022/04/09 00:40:51;;;;;;;4.97;2.53;;;;;;;;;;4977044;28;20047;-85
2022/04/09 00:43:16;;;;;;;6.03;2.90;;;;;;;;;;4959343;28;20044;-85
2022/04/09 00:45:42;;;;;;;5.55;2.90;;;;;;;;;;4976245;28;20039;-85
2022/04/09 00:48:10;;;;;;;6.47;2.80;;;;;;;;;;4978819;28;20397;-84
2022/04/09 00:50:35;;;;;;;4.85;2.53;;;;;;;;;;4964179;28;20043;-84
2022/04/09 00:53:01;;;;;;;5.88;2.95;;;;;;;;;;4978909;28;20600;-86
2022/04/09 00:58:15;;;;;;;7.53;2.55;;;;;;;;;;4976976;28;20440;-84
2022/04/09 01:00:41;;;;;;;7.72;2.83;;;;;;;;;;4968281;28;20117;-84
2022/04/09 01:03:10;;;;;;;6.38;2.47;;;;;;;;;;4975274;28;20509;-84
2022/04/09 01:05:36;;;;;;;8.45;3.38;;;;;;;;;;4984073;28;20034;-83
2022/04/09 01:08:06;;;;;;;6.95;2.45;;;;;;;;;;4977718;28;20041;-86
2022/04/09 01:10:31;;;;;;;9.43;2.65;;;;;;;;;;4959780;28;20030;-85
2022/04/09 01:12:58;;;;;;;8.05;3.60;;;;;;;;;;4978338;28;20054;-85
2022/04/09 01:15:23;;;;;;;6.72;2.97;;;;;;;;;;4977058;28;20079;-84
2022/04/09 01:17:49;;;;;;;6.20;2.17;;;;;;;;;;4975640;28;20038;-85
2022/04/09 01:20:19;;;;;;;6.93;2.40;;;;;;;;;;4973783;28;20443;-86
2022/04/09 01:22:44;;;;;;;9.27;2.67;;;;;;;;;;4957727;28;20093;-85
2022/04/09 01:25:10;;;;;;;7.75;2.53;;;;;;;;;;4968639;28;20465;-85
2022/04/09 01:30:13;;;;;;;6.88;2.33;;;;;;;;;;5518807;23;20049;-82
2022/04/09 01:32:39;;;;;;;7.00;2.50;;;;;;;;;;4988530;28;20073;-82
2022/04/09 01:35:05;;;;;;;7.97;2.30;;;;;;;;;;4988317;28;20057;-82
2022/04/09 01:37:31;;;;;;;9.07;2.50;;;;;;;;;;4987791;28;20520;-82
2022/04/09 01:39:57;;;;;;;4.75;2.10;;;;;;;;;;4995383;28;20034;-82
2022/04/09 01:42:26;;;;;;;7.35;2.83;;;;;;;;;;4980427;28;20521;-82
2022/04/09 01:44:51;;;;;;;5.40;2.30;;;;;;;;;;4994907;28;20038;-82
2022/04/09 01:47:17;;;;;;;6.45;2.22;;;;;;;;;;4995710;28;20037;-82
2022/04/09 01:49:42;;;;;;;6.03;2.35;;;;;;;;;;4981258;28;20065;-81
2022/04/09 01:52:08;;;;;;;5.00;2.22;;;;;;;;;;4996520;28;20070;-82
2022/04/09 01:54:33;;;;;;;6.80;2.33;;;;;;;;;;4987540;28;20038;-82
2022/04/09 01:56:58;;;;;;;7.93;2.58;;;;;;;;;;4988147;28;20096;-82
2022/04/09 01:59:24;;;;;;;6.22;2.33;;;;;;;;;;4986676;28;20591;-83
2022/04/09 02:01:49;;;;;;;6.35;1.95;;;;;;;;;;4986302;28;20866;-83
2022/04/09 02:04:15;;;;;;;6.68;2.15;;;;;;;;;;4982319;28;20042;-83
2022/04/09 02:06:42;;;;;;;7.72;2.42;;;;;;;;;;4984331;28;20370;-82
2022/04/09 02:09:13;;;;;;;8.40;2.58;;;;;;;;;;4981310;28;20477;-83
2022/04/09 02:11:39;;;;;;;10.13;3.00;;;;;;;;;;4994520;28;20249;-83
2022/04/09 02:14:08;;;;;;;5.70;2.20;;;;;;;;;;4983178;28;20034;-82
2022/04/09 02:16:33;;;;;;;6.32;2.10;;;;;;;;;;4981937;28;20116;-81
2022/04/09 02:18:59;;;;;;;9.38;2.63;;;;;;;;;;4987660;28;20109;-83
2022/04/09 02:21:24;;;;;;;9.27;2.40;;;;;;;;;;4992047;28;20036;-82
2022/04/09 02:23:49;;;;;;;6.43;2.58;;;;;;;;;;4997711;28;20049;-82
2022/04/09 02:26:15;;;;;;;7.55;2.47;;;;;;;;;;4998782;28;20039;-83
2022/04/09 02:28:41;;;;;;;6.22;2.30;;;;;;;;;;4981737;28;20034;-82
2022/04/09 02:31:06;;;;;;;7.63;2.83;;;;;;;;;;4993783;28;20046;-83
2022/04/09 02:33:32;;;;;;;7.63;2.50;;;;;;;;;;4992874;28;20068;-82
2022/04/09 02:35:58;;;;;;;8.50;2.28;;;;;;;;;;4982677;28;20042;-82
2022/04/09 02:38:24;;;;;;;5.40;2.50;;;;;;;;;;4992675;28;20515;-81
2022/04/09 02:40:49;;;;;;;7.38;2.45;;;;;;;;;;5002420;28;20026;-82
2022/04/09 02:43:15;;;;;;;9.23;2.60;;;;;;;;;;4996302;28;20413;-82
2022/04/09 02:45:41;;;;;;;5.82;2.17;;;;;;;;;;4992612;28;20034;-82
2022/04/09 02:48:06;;;;;;;7.18;2.40;;;;;;;;;;4987186;28;20509;-82
2022/04/09 02:50:31;;;;;;;10.13;2.45;;;;;;;;;;4985062;28;20045;-81
2022/04/09 02:52:57;;;;;;;10.13;2.67;;;;;;;;;;4994913;28;20508;-81
2022/04/09 02:55:22;;;;;;;10.18;2.85;;;;;;;;;;4986451;28;20041;-81
2022/04/09 02:57:48;;;;;;;8.63;2.40;;;;;;;;;;4987286;28;22815;-81
2022/04/09 03:00:14;;;;;;;10.52;2.67;;;;;;;;;;4985675;28;20492;-81
2022/04/09 03:02:42;;;;;;;5.45;2.40;;;;;;;;;;4995920;28;20046;-81
2022/04/09 03:05:09;;;;;;;8.32;2.53;;;;;;;;;;4985907;28;20039;-81
2022/04/09 03:07:34;;;;;;;9.57;2.78;;;;;;;;;;4978049;28;20034;-81
2022/04/09 03:09:59;;;;;;;9.68;2.83;;;;;;;;;;4984472;28;20037;-82
2022/04/09 03:12:25;;;;;;;7.68;2.70;;;;;;;;;;4978202;28;20022;-82
2022/04/09 03:14:53;;;;;;;9.75;2.90;;;;;;;;;;4984491;28;20034;-82
2022/04/09 03:17:18;;;;;;;7.85;2.70;;;;;;;;;;4999898;28;20026;-82
2022/04/09 03:19:43;;;;;;;9.27;2.30;;;;;;;;;;4978686;28;20065;-82
2022/04/09 03:22:09;;;;;;;9.00;2.60;;;;;;;;;;4985403;28;20481;-82
2022/04/09 03:24:34;;;;;;;9.10;2.72;;;;;;;;;;4983689;28;20046;-81
2022/04/09 03:26:59;;;;;;;6.45;3.00;;;;;;;;;;4985272;28;20037;-81
2022/04/09 03:29:25;;;;;;;7.18;2.70;;;;;;;;;;4984058;28;20095;-81
2022/04/09 03:31:50;;;;;;;7.82;3.30;;;;;;;;;;4977775;28;20114;-81
2022/04/09 03:34:15;;;;;;;7.90;2.90;;;;;;;;;;4985504;28;20087;-81
2022/04/09 03:36:42;;;;;;;7.13;2.95;;;;;;;;;;4980989;28;20408;-81
2022/04/09 03:39:07;;;;;;;8.90;3.10;;;;;;;;;;4984089;28;20037;-81
2022/04/09 03:41:35;;;;;;;11.48;3.53;;;;;;;;;;4995190;28;20034;-81
2022/04/09 03:44:01;;;;;;;8.02;3.25;;;;;;;;;;4979273;28;20068;-82
2022/04/09 03:46:27;;;;;;;6.85;3.30;;;;;;;;;;4985554;28;20038;-83
2022/04/09 03:48:53;;;;;;;8.70;3.22;;;;;;;;;;4976672;28;20034;-82
2022/04/09 03:51:18;;;;;;;9.68;3.28;;;;;;;;;;4977813;28;20046;-82
2022/04/09 03:53:43;;;;;;;7.70;3.13;;;;;;;;;;4994610;28;20034;-82
2022/04/09 03:56:08;;;;;;;7.05;3.15;;;;;;;;;;4983499;28;20092;-82
2022/04/09 03:58:37;;;;;;;8.57;3.47;;;;;;;;;;4994151;28;20397;-82
2022/04/09 04:01:02;;;;;;;7.68;3.20;;;;;;;;;;4984765;28;20042;-82
2022/04/09 04:03:28;;;;;;;9.80;3.20;;;;;;;;;;4986923;28;20129;-82
2022/04/09 04:05:53;;;;;;;8.32;3.00;;;;;;;;;;4982203;28;20914;-81
2022/04/09 04:08:19;;;;;;;5.68;2.97;;;;;;;;;;4997976;28;20046;-82
2022/04/09 04:10:44;;;;;;;8.70;3.08;;;;;;;;;;4983286;28;20041;-82
2022/04/09 04:13:11;;;;;;;12.65;3.67;;;;;;;;;;4997781;28;20034;-81
2022/04/09 04:15:36;;;;;;;9.57;3.10;;;;;;;;;;4986865;28;20057;-81
2022/04/09 04:18:02;;;;;;;11.95;3.65;;;;;;;;;;4989319;28;20467;-81
2022/04/09 04:20:28;;;;;;;8.10;2.92;;;;;;;;;;4985747;28;20137;-82
2022/04/09 04:22:53;;;;;;;10.57;3.22;;;;;;;;;;4984662;28;20787;-80
2022/04/09 04:25:19;;;;;;;9.63;3.28;;;;;;;;;;4988704;28;20101;-81
2022/04/09 04:27:51;;;;;;;8.82;3.50;;;;;;;;;;4998288;28;20068;-81
2022/04/09 04:30:18;;;;;;;13.38;3.40;;;;;;;;;;4988440;28;20850;-80
2022/04/09 04:32:43;;;;;;;10.52;3.20;;;;;;;;;;4997995;28;20524;-80
2022/04/09 04:35:10;;;;;;;9.13;3.00;;;;;;;;;;4995962;28;20113;-80
2022/04/09 04:37:45;;;;;;;8.60;3.72;;;;;;;;;;4981678;28;20034;-80
2022/04/09 04:40:12;;;;;;;8.65;3.15;;;;;;;;;;5002946;28;20040;-80
2022/04/09 04:42:37;;;;;;;10.52;4.75;;;;;;;;;;4997179;28;20076;-80
2022/04/09 04:45:04;;;;;;;11.57;3.30;;;;;;;;;;4988938;28;20058;-80
2022/04/09 04:47:29;;;;;;;10.07;3.60;;;;;;;;;;4997698;28;20033;-80
2022/04/09 04:49:54;;;;;;;9.63;3.22;;;;;;;;;;4988168;28;20044;-81
2022/04/09 04:52:19;;;;;;;9.27;3.72;;;;;;;;;;4996654;28;20058;-82
2022/04/09 04:54:45;;;;;;;11.63;3.50;;;;;;;;;;4979417;28;20076;-81
2022/04/09 04:57:13;;;;;;;11.68;3.67;;;;;;;;;;4987170;28;20457;-81
2022/04/09 04:59:38;;;;;;;12.05;4.25;;;;;;;;;;4978820;28;20045;-82
2022/04/09 05:02:04;;;;;;;13.32;3.20;;;;;;;;;;4995994;28;20033;-81
2022/04/09 05:04:30;;;;;;;9.15;3.35;;;;;;;;;;4984940;28;20433;-81
2022/04/09 05:06:55;;;;;;;10.52;3.08;;;;;;;;;;4981583;28;20034;-82
2022/04/09 05:09:21;;;;;;;12.27;3.40;;;;;;;;;;4999228;28;20045;-82
2022/04/09 05:11:46;;;;;;;11.00;3.28;;;;;;;;;;4997154;28;20041;-82
2022/04/09 05:14:12;;;;;;;10.88;3.03;;;;;;;;;;4995352;28;20038;-82
2022/04/09 05:16:37;;;;;;;7.75;3.00;;;;;;;;;;4991630;28;20039;-81
2022/04/09 05:19:03;;;;;;;16.02;4.53;;;;;;;;;;4989219;28;20038;-81
2022/04/09 05:21:28;;;;;;;8.20;2.90;;;;;;;;;;4995746;28;20062;-81
2022/04/09 05:23:54;;;;;;;10.55;3.40;;;;;;;;;;4982733;28;20045;-82
2022/04/09 05:26:19;;;;;;;11.48;3.50;;;;;;;;;;4984523;28;20512;-82
2022/04/09 05:28:44;;;;;;;13.57;3.28;;;;;;;;;;4994660;28;20545;-82
2022/04/09 05:31:11;;;;;;;11.15;3.20;;;;;;;;;;4986979;28;20065;-81
2022/04/09 05:33:37;;;;;;;12.60;3.28;;;;;;;;;;4989055;28;20038;-81
2022/04/09 05:36:03;;;;;;;9.82;3.30;;;;;;;;;;4994993;28;20041;-81
2022/04/09 05:38:28;;;;;;;10.18;3.10;;;;;;;;;;4985006;28;20516;-81
2022/04/09 05:40:54;;;;;;;7.82;2.83;;;;;;;;;;4986473;28;20124;-81
2022/04/09 05:43:19;;;;;;;9.43;3.00;;;;;;;;;;4983753;28;20046;-82
2022/04/09 05:45:44;;;;;;;14.90;3.53;;;;;;;;;;4986420;28;20037;-81
2022/04/09 05:48:10;;;;;;;10.23;3.20;;;;;;;;;;4986166;28;20092;-81
2022/04/09 05:50:35;;;;;;;10.93;2.88;;;;;;;;;;4995541;28;20038;-81
2022/04/09 05:53:01;;;;;;;10.05;3.22;;;;;;;;;;4980059;28;20444;-81
2022/04/09 05:55:26;;;;;;;10.32;3.13;;;;;;;;;;4979310;28;20038;-82
2022/04/09 05:57:53;;;;;;;11.43;2.97;;;;;;;;;;4986307;28;20101;-83
2022/04/09 06:00:19;;;;;;;13.15;3.50;;;;;;;;;;4978916;28;20092;-83
2022/04/09 06:02:44;;;;;;;10.27;3.08;;;;;;;;;;4980553;28;20117;-81
2022/04/09 06:05:09;;;;;;;9.18;3.35;;;;;;;;;;4985109;28;20085;-81
2022/04/09 06:07:35;;;;;;;13.82;3.88;;;;;;;;;;4992321;28;20456;-81
2022/04/09 06:10:03;;;;;;;8.68;2.90;;;;;;;;;;4986252;28;20053;-80
2022/04/09 06:12:29;;;;;;;8.35;3.30;;;;;;;;;;4995646;28;20140;-82
2022/04/09 06:14:54;;;;;;;10.88;3.15;;;;;;;;;;4980280;28;20509;-82
2022/04/09 06:17:19;;;;;;;10.95;2.95;;;;;;;;;;4977940;28;20037;-83
2022/04/09 06:19:45;;;;;;;8.05;2.75;;;;;;;;;;4978684;28;20061;-83
2022/04/09 06:22:10;;;;;;;8.60;3.17;;;;;;;;;;4985376;28;20382;-83
2022/04/09 06:24:36;;;;;;;10.80;3.25;;;;;;;;;;4985695;28;20060;-82
2022/04/09 06:27:01;;;;;;;11.60;3.30;;;;;;;;;;4978091;28;20556;-81
2022/04/09 06:29:26;;;;;;;8.60;3.13;;;;;;;;;;4992101;28;20525;-82
2022/04/09 06:31:52;;;;;;;11.23;3.35;;;;;;;;;;4985256;28;20042;-82
2022/04/09 06:34:18;;;;;;;10.90;3.55;;;;;;;;;;4985710;28;20172;-82
2022/04/09 06:36:43;;;;;;;8.23;3.03;;;;;;;;;;4983466;28;20030;-82
2022/04/09 06:39:09;;;;;;;9.55;3.00;;;;;;;;;;4994643;28;20034;-82
2022/04/09 06:41:35;;;;;;;8.70;3.00;;;;;;;;;;4992168;28;20081;-82
2022/04/09 06:44:00;;;;;;;10.95;3.25;;;;;;;;;;4984937;28;20070;-82
2022/04/09 06:46:26;;;;;;;10.32;3.00;;;;;;;;;;4980412;28;20038;-82
2022/04/09 06:48:52;;;;;;;9.25;3.03;;;;;;;;;;4985408;28;20081;-82
2022/04/09 06:51:17;;;;;;;10.02;3.10;;;;;;;;;;4984365;28;20033;-83
2022/04/09 06:53:42;;;;;;;8.32;2.70;;;;;;;;;;4985058;28;20042;-83
2022/04/09 06:56:08;;;;;;;9.27;2.80;;;;;;;;;;4978278;28;20664;-83
2022/04/09 06:58:33;;;;;;;10.57;2.92;;;;;;;;;;4985447;28;20038;-83
2022/04/09 07:00:59;;;;;;;11.07;3.13;;;;;;;;;;4982225;28;20500;-82
2022/04/09 07:03:25;;;;;;;10.45;3.28;;;;;;;;;;4978247;28;20047;-81
2022/04/09 07:05:51;;;;;;;7.72;2.20;;;;;;;;;;4982712;28;20488;-81
2022/04/09 07:08:16;;;;;;;11.25;2.65;;;;;;;;;;4985935;28;20037;-82
2022/04/09 07:10:41;;;;;;;9.00;2.58;;;;;;;;;;4984577;28;20053;-81
2022/04/09 07:13:07;;;;;;;11.77;2.70;;;;;;;;;;4982467;28;20491;-82
2022/04/09 07:15:32;;;;;;;7.75;2.30;;;;;;;;;;4992243;28;20218;-82
2022/04/09 07:17:58;;;;;;;10.25;2.70;;;;;;;;;;4976136;28;20508;-82
2022/04/09 07:20:23;;;;;;;8.05;2.53;;;;;;;;;;4984470;28;20479;-83
2022/04/09 07:22:48;;;;;;;8.02;2.35;;;;;;;;;;4984024;28;20052;-82
2022/04/09 07:25:16;;;;;;;7.20;2.42;;;;;;;;;;4984873;28;20030;-82
2022/04/09 07:27:43;;;;;;;10.77;3.20;;;;;;;;;;4980271;28;20030;-82
2022/04/09 07:30:13;;;;;;;8.70;2.70;;;;;;;;;;4983263;28;20524;-83
2022/04/09 07:32:40;;;;;;;8.75;2.60;;;;;;;;;;4995578;28;20069;-83
2022/04/09 07:35:05;;;;;;;10.13;2.88;;;;;;;;;;4967402;28;20030;-82
2022/04/09 07:37:31;;;;;;;7.30;2.58;;;;;;;;;;4989526;28;20091;-83
2022/04/09 07:39:56;;;;;;;9.77;2.97;;;;;;;;;;4980733;28;20125;-81
2022/04/09 07:42:22;;;;;;;8.32;2.63;;;;;;;;;;4985343;28;20970;-81
2022/04/09 07:44:48;;;;;;;10.05;3.05;;;;;;;;;;4995633;28;20089;-83
2022/04/09 07:47:14;;;;;;;10.07;2.80;;;;;;;;;;4976082;28;20097;-81
2022/04/09 07:49:44;;;;;;;9.55;2.75;;;;;;;;;;4982591;28;20058;-82
2022/04/09 07:52:10;;;;;;;9.85;2.50;;;;;;;;;;4982073;28;20065;-82
2022/04/09 07:54:38;;;;;;;9.05;2.35;;;;;;;;;;4981029;28;20041;-81
2022/04/09 07:57:04;;;;;;;11.13;2.55;;;;;;;;;;4985094;28;20053;-81
2022/04/09 07:59:29;;;;;;;8.77;2.78;;;;;;;;;;4980670;28;20026;-81
2022/04/09 08:01:55;;;;;;;7.05;2.28;;;;;;;;;;4977531;28;20051;-81
2022/04/09 08:04:23;;;;;;;7.30;2.17;;;;;;;;;;4980980;28;20149;-83
2022/04/09 08:06:50;;;;;;;8.93;2.30;;;;;;;;;;5000978;28;20041;-83
2022/04/09 08:09:18;;;;;;;;;;;;;;;;;;4993703;28;20035;-83
2022/04/09 08:11:46;;;;;;;7.55;2.05;;;;;;;;;;4984237;28;19996;-83
2022/04/09 08:14:17;;;;;;;8.57;2.55;;;;;;;;;;4960873;28;20037;-85
2022/04/09 08:17:13;;;;;;;;;;;;;;;;;;;;;
2022/04/09 08:19:48;;;;;;;9.77;3.15;;;;;;;;;;4967367;28;20645;-83
2022/04/09 08:22:17;;;;;;;8.98;2.00;;;;;;;;;;4950850;28;20092;-82
2022/04/09 08:24:49;;;;;;;7.85;2.10;;;;;;;;;;4972824;28;20572;-82
2022/04/09 08:27:53;;;;;;;;;;;;;;;;;;;;;
2022/04/09 08:30:21;;;;;;;8.32;2.00;;;;;;;;;;4933650;28;21482;-85
2022/04/09 08:32:46;;;;;;;8.75;2.42;;;;;;;;;;4994199;28;20477;-84
2022/04/09 08:35:12;;;;;;;6.05;1.80;;;;;;;;;;4978425;28;20038;-81
2022/04/09 08:37:38;;;;;;;8.82;2.00;;;;;;;;;;4985680;28;20050;-82
2022/04/09 08:40:04;;;;;;;7.13;1.77;;;;;;;;;;4985495;28;20045;-81
2022/04/09 08:42:30;;;;;;;8.65;1.95;;;;;;;;;;4980069;28;20112;-82
2022/04/09 08:44:55;;;;;;;9.68;2.53;;;;;;;;;;4994986;28;20117;-81
2022/04/09 08:47:20;;;;;;;7.38;1.80;;;;;;;;;;4975806;28;20038;-84
2022/04/09 08:49:47;;;;;;;6.53;2.08;;;;;;;;;;4977673;28;20065;-81
2022/04/09 08:52:13;;;;;;;11.48;2.20;;;;;;;;;;5001964;28;20072;-84
2022/04/09 08:54:40;;;;;;;7.68;1.88;;;;;;;;;;4982967;28;20109;-82
2022/04/09 08:57:07;;;;;;;7.53;1.70;;;;;;;;;;4979360;28;20065;-82
2022/04/09 08:59:32;;;;;;;7.70;1.75;;;;;;;;;;4988207;28;20552;-82
2022/04/09 09:01:59;;;;;;;6.68;1.80;;;;;;;;;;4987795;28;20060;-82
2022/04/09 09:04:25;;;;;;;8.60;1.95;;;;;;;;;;4980664;28;20165;-82
2022/04/09 09:06:50;;;;;;;8.98;2.00;;;;;;;;;;4986261;28;20640;-82
2022/04/09 09:09:27;;;;;;;5.40;1.70;;;;;;;;;;4981642;28;20727;-83
2022/04/09 09:11:52;;;;;;;8.07;1.80;;;;;;;;;;4987098;28;20037;-83
2022/04/09 09:14:34;;;;;;;6.50;1.58;;;;;;;;;;4998131;28;20607;-83
2022/04/09 09:17:02;;;;;;;7.35;1.58;;;;;;;;;;4992838;28;20153;-81
2022/04/09 09:19:45;;;;;;;;;;;;;;;;;;4995530;28;20033;-83
2022/04/09 09:22:10;;;;;;;8.27;1.50;;;;;;;;;;4997595;28;19917;-83
2022/04/09 09:24:35;;;;;;;5.68;1.20;;;;;;;;;;4986354;28;20041;-82
2022/04/09 09:27:02;;;;;;;6.35;1.50;;;;;;;;;;4980234;28;20035;-82
2022/04/09 09:29:29;;;;;;;6.40;1.35;;;;;;;;;;5001856;28;20038;-83
2022/04/09 09:31:56;;;;;;;6.13;1.63;;;;;;;;;;4978195;28;20474;-83
2022/04/09 09:34:21;;;;;;;6.13;1.40;;;;;;;;;;4996285;28;20136;-82
2022/04/09 09:36:48;;;;;;;6.60;1.50;;;;;;;;;;4982456;28;20061;-83
2022/04/09 09:39:16;;;;;;;6.93;1.55;;;;;;;;;;5001712;28;20500;-82
2022/04/09 09:41:52;;;;;;;5.65;1.40;;;;;;;;;;4985861;28;20042;-82
2022/04/09 09:44:19;;;;;;;4.68;1.45;;;;;;;;;;4987049;28;20030;-83
2022/04/09 09:46:46;;;;;;;6.95;1.88;;;;;;;;;;4994992;28;20029;-82
2022/04/09 09:49:12;;;;;;;;;;;;;;;;;;4981082;28;20034;-83
2022/04/09 09:51:37;;;;;;;5.45;1.67;;;;;;;;;;4996650;28;19984;-82
2022/04/09 09:54:07;;;;;;;6.03;1.48;;;;;;;;;;4996874;28;20859;-83
2022/04/09 09:56:43;;;;;;;5.53;1.20;;;;;;;;;;4979457;28;20034;-83
2022/04/09 09:59:13;;;;;;;6.30;1.52;;;;;;;;;;4981597;28;20271;-84
2022/04/09 10:01:43;;;;;;;6.30;1.58;;;;;;;;;;4967968;28;20046;-82
2022/04/09 10:04:11;;;;;;;3.70;1.00;;;;;;;;;;4996680;28;20069;-82
2022/04/09 10:06:38;;;;;;;5.50;1.50;;;;;;;;;;4982358;28;20045;-82
2022/04/09 10:09:07;;;;;;;7.87;1.50;;;;;;;;;;4996281;28;20120;-83
2022/04/09 10:11:47;;;;;;;4.82;1.40;;;;;;;;;;5001959;28;20035;-82
2022/04/09 10:14:14;;;;;;;4.72;1.50;;;;;;;;;;4987651;28;20109;-81
2022/04/09 10:16:41;;;;;;;4.70;1.13;;;;;;;;;;4984744;28;20049;-82
2022/04/09 10:19:09;;;;;;;6.43;1.45;;;;;;;;;;4984295;28;20041;-83
2022/04/09 10:21:34;;;;;;;8.77;1.65;;;;;;;;;;4996773;28;20382;-84
2022/04/09 10:24:02;;;;;;;7.90;1.40;;;;;;;;;;4983187;28;20043;-81
2022/04/09 10:26:28;;;;;;;5.00;1.42;;;;;;;;;;4980155;28;20125;-82
2022/04/09 10:29:03;;;;;;;5.93;1.35;;;;;;;;;;4986810;28;20120;-82
2022/04/09 10:31:29;;;;;;;6.35;1.50;;;;;;;;;;4995555;28;20038;-82
2022/04/09 10:34:02;;;;;;;6.38;1.15;;;;;;;;;;4997160;28;20065;-82
2022/04/09 10:36:40;;;;;;;5.15;1.20;;;;;;;;;;4961538;28;20544;-83
2022/04/09 10:39:40;;;;;;;5.05;1.52;;;;;;;;;;4977889;28;20042;-83
2022/04/09 10:42:09;;;;;;;3.20;1.00;;;;;;;;;;4962400;28;20049;-82
2022/04/09 10:44:35;;;;;;;4.68;1.00;;;;;;;;;;4954787;28;20066;-82
2022/04/09 10:47:04;;;;;;;3.22;0.90;;;;;;;;;;4979275;28;20045;-82
2022/04/09 10:49:30;;;;;;;5.15;1.20;;;;;;;;;;4986913;28;20419;-82
2022/04/09 10:52:06;;;;;;;6.40;1.33;;;;;;;;;;5000464;28;20133;-83
2022/04/09 10:54:32;;;;;;;5.32;1.13;;;;;;;;;;5001757;28;20068;-82
2022/04/09 10:57:06;;;;;;;6.00;1.20;;;;;;;;;;4977765;28;20117;-81
2022/04/09 10:59:33;;;;;;;5.75;1.52;;;;;;;;;;4965515;28;20030;-81
2022/04/09 11:01:59;;;;;;;5.45;1.20;;;;;;;;;;4959382;28;20382;-81
2022/04/09 11:04:27;;;;;;;3.72;1.02;;;;;;;;;;4964049;28;20045;-81
2022/04/09 11:07:05;;;;;;;7.22;1.13;;;;;;;;;;4976323;28;20042;-81
2022/04/09 11:09:51;;;;;;;5.47;1.20;;;;;;;;;;4999273;28;20552;-81
2022/04/09 11:12:24;;;;;;;5.03;1.23;;;;;;;;;;4993784;28;20049;-81
2022/04/09 11:14:50;;;;;;;5.53;1.38;;;;;;;;;;4994671;28;20041;-81
2022/04/09 11:17:22;;;;;;;4.45;1.13;;;;;;;;;;4993243;28;20038;-81
2022/04/09 11:19:48;;;;;;;3.55;0.88;;;;;;;;;;5000416;28;20045;-81
2022/04/09 11:22:14;;;;;;;4.35;1.10;;;;;;;;;;4998501;28;20081;-81
2022/04/09 11:24:39;;;;;;;4.35;1.27;;;;;;;;;;4993308;28;20463;-81
2022/04/09 11:27:05;;;;;;;6.07;1.30;;;;;;;;;;4979974;28;20041;-81
2022/04/09 11:29:35;;;;;;;5.30;1.00;;;;;;;;;;4984617;28;20046;-81
2022/04/09 11:32:00;;;;;;;3.78;1.10;;;;;;;;;;4977321;28;20034;-81
2022/04/09 11:34:26;;;;;;;4.57;1.10;;;;;;;;;;4980394;28;20084;-81
2022/04/09 11:37:12;;;;;;;7.70;1.33;;;;;;;;;;4991420;28;20037;-80
2022/04/09 11:39:42;;;;;;;4.28;1.00;;;;;;;;;;5000421;28;20085;-80
2022/04/09 11:42:08;;;;;;;4.57;1.25;;;;;;;;;;4992519;28;20080;-79
2022/04/09 11:44:33;;;;;;;5.80;1.40;;;;;;;;;;4979102;28;20045;-81
2022/04/09 11:47:16;;;;;;;3.75;1.00;;;;;;;;;;4984750;28;20034;-80
2022/04/09 11:49:42;;;;;;;5.63;1.30;;;;;;;;;;4994751;28;20039;-80
2022/04/09 11:52:08;;;;;;;5.78;1.05;;;;;;;;;;4992136;28;20113;-81
2022/04/09 11:54:35;;;;;;;7.03;1.10;;;;;;;;;;4982406;28;20045;-82
2022/04/09 11:57:02;;;;;;;4.10;1.10;;;;;;;;;;4985094;28;20042;-81
2022/04/09 11:59:29;;;;;;;4.47;1.30;;;;;;;;;;4983688;28;20048;-82
2022/04/09 12:01:54;;;;;;;3.55;0.90;;;;;;;;;;4991561;28;20097;-81
2022/04/09 12:04:20;;;;;;;5.95;1.00;;;;;;;;;;4978731;28;20050;-81
2022/04/09 12:06:46;;;;;;;4.10;1.05;;;;;;;;;;4992555;28;20158;-80
2022/04/09 12:09:12;;;;;;;4.15;1.13;;;;;;;;;;4985508;28;20397;-81
2022/04/09 12:11:51;;;;;;;4.90;1.15;;;;;;;;;;4992862;28;20105;-81
2022/04/09 12:14:17;;;;;;;4.03;1.10;;;;;;;;;;4985387;28;20042;-81
2022/04/09 12:16:43;;;;;;;4.85;1.10;;;;;;;;;;4991741;28;20805;-81
2022/04/09 12:19:08;;;;;;;5.82;1.30;;;;;;;;;;4979469;28;20042;-81
2022/04/09 12:21:38;;;;;;;4.63;1.20;;;;;;;;;;4982064;28;20446;-82
2022/04/09 12:24:09;;;;;;;4.78;1.23;;;;;;;;;;4963141;28;20671;-81
2022/04/09 12:26:45;;;;;;;4.72;1.10;;;;;;;;;;4979626;28;20397;-82
2022/04/09 12:29:13;;;;;;;5.50;1.50;;;;;;;;;;4956594;28;20564;-81
2022/04/09 12:31:42;;;;;;;5.20;1.05;;;;;;;;;;4986501;28;20049;-81
2022/04/09 12:34:07;;;;;;;5.57;1.40;;;;;;;;;;4969764;28;20505;-82
2022/04/09 12:36:33;;;;;;;3.95;1.02;;;;;;;;;;4992920;28;20107;-82
2022/04/09 12:39:00;;;;;;;4.47;0.98;;;;;;;;;;4983541;28;20033;-81
2022/04/09 12:41:26;;;;;;;5.15;1.08;;;;;;;;;;4967543;28;20027;-81
2022/04/09 12:43:54;;;;;;;4.22;1.00;;;;;;;;;;4983723;28;20041;-81
2022/04/09 12:46:20;;;;;;;3.15;0.70;;;;;;;;;;4996210;28;20033;-81
2022/04/09 12:48:50;;;;;;;3.00;0.70;;;;;;;;;;4981638;28;20041;-81
2022/04/09 12:51:21;;;;;;;3.40;0.90;;;;;;;;;;4976939;28;20129;-82
2022/04/09 12:53:55;;;;;;;3.33;0.95;;;;;;;;;;4994467;28;20050;-81
2022/04/09 12:56:30;;;;;;;4.20;0.88;;;;;;;;;;4957777;28;20038;-80
2022/04/09 12:58:58;;;;;;;4.88;1.17;;;;;;;;;;4975907;28;20485;-82
2022/04/09 13:01:24;;;;;;;2.80;0.63;;;;;;;;;;4966336;28;20038;-81
2022/04/09 13:03:49;;;;;;;2.22;0.47;;;;;;;;;;4966605;28;20069;-81
2022/04/09 13:06:14;;;;;;;2.30;0.65;;;;;;;;;;4963730;28;20099;-82
2022/04/09 13:08:42;;;;;;;1.83;0.40;;;;;;;;;;4975524;28;20042;-81
2022/04/09 13:11:13;;;;;;;2.42;0.57;;;;;;;;;;4961005;28;20105;-82
2022/04/09 13:13:39;;;;;;;3.65;0.60;;;;;;;;;;4981986;28;20039;-82
2022/04/09 13:16:05;;;;;;;3.00;0.60;;;;;;;;;;4959452;28;20041;-82
2022/04/09 13:18:30;;;;;;;4.07;0.52;;;;;;;;;;4965653;28;20088;-80
2022/04/09 13:20:56;;;;;;;2.75;0.50;;;;;;;;;;4988011;28;20034;-82
2022/04/09 13:23:21;;;;;;;3.63;0.70;;;;;;;;;;4987641;28;20034;-81
2022/04/09 13:25:46;;;;;;;2.10;0.60;;;;;;;;;;4978516;28;20519;-81
2022/04/09 13:28:14;;;;;;;2.67;0.70;;;;;;;;;;4983797;28;20042;-81
2022/04/09 13:30:40;;;;;;;3.90;0.73;;;;;;;;;;4979641;28;20053;-81
2022/04/09 13:33:06;;;;;;;3.22;0.70;;;;;;;;;;4982297;28;20034;-82
2022/04/09 13:35:31;;;;;;;3.58;1.40;;;;;;;;;;4981963;28;20038;-81
2022/04/09 13:37:56;;;;;;;3.95;0.80;;;;;;;;;;4981206;28;20034;-82
2022/04/09 13:40:22;;;;;;;2.55;0.60;;;;;;;;;;4993862;28;20494;-80
2022/04/09 13:42:50;;;;;;;2.00;0.60;;;;;;;;;;4987197;28;20058;-80
2022/04/09 13:45:15;;;;;;;4.45;0.65;;;;;;;;;;4984957;28;20045;-79
2022/04/09 13:47:41;;;;;;;3.05;0.68;;;;;;;;;;4994674;28;20383;-80
2022/04/09 13:50:08;;;;;;;3.30;0.65;;;;;;;;;;4968061;28;20034;-80
2022/04/09 13:52:33;;;;;;;3.60;0.80;;;;;;;;;;4959031;28;20121;-80
2022/04/09 13:55:01;;;;;;;2.45;0.63;;;;;;;;;;4975087;28;20130;-80
2022/04/09 13:57:28;;;;;;;2.35;0.60;;;;;;;;;;4990913;28;20102;-83
2022/04/09 13:59:53;;;;;;;2.88;0.70;;;;;;;;;;4974079;28;20767;-81
2022/04/09 14:02:18;;;;;;;2.58;0.60;;;;;;;;;;4957898;28;20031;-80
2022/04/09 14:04:47;;;;;;;3.40;0.90;;;;;;;;;;4985452;28;20069;-80
2022/04/09 14:07:12;;;;;;;2.47;0.60;;;;;;;;;;4980185;28;20121;-81
2022/04/09 14:09:38;;;;;;;3.13;0.50;;;;;;;;;;4968243;28;20045;-81
2022/04/09 14:12:04;;;;;;;2.60;0.47;;;;;;;;;;4973896;28;20492;-80
2022/04/09 14:14:29;;;;;;;1.48;0.50;;;;;;;;;;4962094;28;20501;-80
2022/04/09 14:16:54;;;;;;;2.83;0.60;;;;;;;;;;4995110;28;20393;-81
2022/04/09 14:19:20;;;;;;;1.95;0.50;;;;;;;;;;4979278;28;24630;-81
2022/04/09 14:21:45;;;;;;;1.65;0.40;;;;;;;;;;4993285;28;20076;-81
2022/04/09 14:24:11;;;;;;;2.65;0.50;;;;;;;;;;4980717;28;20097;-81
2022/04/09 14:26:37;;;;;;;2.28;0.50;;;;;;;;;;4975384;28;20046;-81
2022/04/09 14:29:03;;;;;;;2.08;0.50;;;;;;;;;;4993961;28;20040;-81
2022/04/09 14:31:33;;;;;;;2.78;0.52;;;;;;;;;;4992799;28;20049;-80
2022/04/09 14:34:03;;;;;;;2.75;0.60;;;;;;;;;;4964009;28;20035;-80
2022/04/09 14:36:28;;;;;;;4.53;0.70;;;;;;;;;;4964380;28;20071;-80
2022/04/09 14:38:55;;;;;;;3.60;0.55;;;;;;;;;;4958689;28;20497;-80
2022/04/09 14:41:20;;;;;;;8.98;1.20;;;;;;;;;;4991882;28;20041;-80
2022/04/09 14:43:46;;;;;;;4.60;0.75;;;;;;;;;;4985890;28;20548;-80
2022/04/09 14:46:11;;;;;;;3.80;0.75;;;;;;;;;;4976906;28;20110;-81
2022/04/09 14:48:37;;;;;;;1.98;0.60;;;;;;;;;;4974019;28;20038;-81